sensor_id;sensor_type;location;lat;lon;timestamp;pressure;altitude;pressure_sealevel;temperature;humidity
11856;BME280;5987;53.140;8.904;2023-03-13T00:02:03;100272.00;;;4.75;100.00
11856;BME280;5987;53.140;8.904;2023-03-13T00:05:07;100262.16;;;4.88;100.00
11856;BME280;5987;53.140;8.904;2023-03-13T00:08:13;100252.81;;;4.81;100.00
11856;BME280;5987;53.140;8.904;2023-03-13T00:11:16;100244.31;;;4.73;100.00
11856;BME280;5987;53.140;8.904;2023-03-13T00:14:20;100242.22;;;4.89;100.00
11856;BME280;5987;53.140;8.904;2023-03-13T00:17:23;100236.31;;;4.80;100.00
11856;BME280;5987;53.140;8.904;2023-03-13T00:20:28;100233.59;;;4.85;100.00
11856;BME280;5987;53.140;8.904;2023-03-13T00:23:35;100225.16;;;4.77;100.00
11856;BME280;5987;53.140;8.904;2023-03-13T00:26:39;100224.81;;;4.91;100.00
11856;BME280;5987;53.140;8.904;2023-03-13T00:29:43;100221.25;;;4.95;100.00
11856;BME280;5987;53.140;8.904;2023-03-13T00:32:47;100211.84;;;4.89;100.00
11856;BME280;5987;53.140;8.904;2023-03-13T00:35:50;100210.19;;;4.85;100.00
11856;BME280;5987;53.140;8.904;2023-03-13T00:38:57;100209.53;;;5.13;100.00
11856;BME280;5987;53.140;8.904;2023-03-13T00:42:01;100194.81;;;5.13;100.00
11856;BME280;5987;53.140;8.904;2023-03-13T00:45:07;100194.84;;;5.10;100.00
11856;BME280;5987;53.140;8.904;2023-03-13T00:48:10;100189.09;;;4.97;100.00
11856;BME280;5987;53.140;8.904;2023-03-13T00:51:16;100188.94;;;5.05;100.00
11856;BME280;5987;53.140;8.904;2023-03-13T00:54:22;100179.59;;;4.96;100.00
11856;BME280;5987;53.140;8.904;2023-03-13T00:57:26;100176.25;;;4.91;100.00
11856;BME280;5987;53.140;8.904;2023-03-13T01:00:29;100163.00;;;5.01;100.00
11856;BME280;5987;53.140;8.904;2023-03-13T01:03:34;100151.19;;;5.22;100.00
11856;BME280;5987;53.140;8.904;2023-03-13T01:06:40;100157.75;;;5.04;100.00
11856;BME280;5987;53.140;8.904;2023-03-13T01:09:46;100146.06;;;5.19;100.00
11856;BME280;5987;53.140;8.904;2023-03-13T01:12:49;100138.22;;;5.20;100.00
11856;BME280;5987;53.140;8.904;2023-03-13T01:15:53;100133.69;;;5.28;100.00
11856;BME280;5987;53.140;8.904;2023-03-13T01:19:00;100130.16;;;5.31;100.00
11856;BME280;5987;53.140;8.904;2023-03-13T01:22:04;100119.00;;;5.26;100.00
11856;BME280;5987;53.140;8.904;2023-03-13T01:25:13;100110.44;;;5.22;100.00
11856;BME280;5987;53.140;8.904;2023-03-13T01:28:18;100100.09;;;5.19;100.00
11856;BME280;5987;53.140;8.904;2023-03-13T01:31:25;100096.03;;;5.42;100.00
11856;BME280;5987;53.140;8.904;2023-03-13T01:34:29;100096.25;;;5.32;100.00
11856;BME280;5987;53.140;8.904;2023-03-13T01:37:33;100083.81;;;5.44;100.00
11856;BME280;5987;53.140;8.904;2023-03-13T01:40:43;100081.38;;;5.38;100.00
11856;BME280;5987;53.140;8.904;2023-03-13T01:43:48;100058.00;;;5.36;100.00
11856;BME280;5987;53.140;8.904;2023-03-13T01:46:52;100060.16;;;5.20;100.00
11856;BME280;5987;53.140;8.904;2023-03-13T01:49:55;100054.16;;;5.18;100.00
11856;BME280;5987;53.140;8.904;2023-03-13T01:52:59;100043.84;;;5.15;100.00
11856;BME280;5987;53.140;8.904;2023-03-13T01:56:10;100034.91;;;5.24;100.00
11856;BME280;5987;53.140;8.904;2023-03-13T01:59:18;100022.94;;;5.18;100.00
11856;BME280;5987;53.140;8.904;2023-03-13T02:02:24;100011.63;;;5.19;100.00
11856;BME280;5987;53.140;8.904;2023-03-13T02:05:30;100010.84;;;5.15;100.00
11856;BME280;5987;53.140;8.904;2023-03-13T02:08:37;99997.78;;;5.17;100.00
11856;BME280;5987;53.140;8.904;2023-03-13T02:11:50;99985.31;;;5.28;100.00
11856;BME280;5987;53.140;8.904;2023-03-13T02:14:55;99979.13;;;5.32;100.00
11856;BME280;5987;53.140;8.904;2023-03-13T02:18:00;99973.25;;;5.26;100.00
11856;BME280;5987;53.140;8.904;2023-03-13T02:21:15;99965.28;;;5.32;100.00
11856;BME280;5987;53.140;8.904;2023-03-13T02:24:31;99958.38;;;5.31;100.00
11856;BME280;5987;53.140;8.904;2023-03-13T02:27:40;99949.41;;;5.40;100.00
11856;BME280;5987;53.140;8.904;2023-03-13T02:30:48;99943.31;;;5.41;100.00
11856;BME280;5987;53.140;8.904;2023-03-13T02:33:54;99936.50;;;5.37;100.00
11856;BME280;5987;53.140;8.904;2023-03-13T02:37:02;99920.63;;;5.46;100.00
11856;BME280;5987;53.140;8.904;2023-03-13T02:40:11;99909.44;;;5.42;100.00
11856;BME280;5987;53.140;8.904;2023-03-13T02:43:25;99904.28;;;5.41;100.00
11856;BME280;5987;53.140;8.904;2023-03-13T02:46:30;99894.66;;;5.43;100.00
11856;BME280;5987;53.140;8.904;2023-03-13T02:49:35;99892.34;;;5.33;100.00
11856;BME280;5987;53.140;8.904;2023-03-13T02:52:42;99879.25;;;5.37;100.00
11856;BME280;5987;53.140;8.904;2023-03-13T02:55:47;99876.88;;;5.29;100.00
11856;BME280;5987;53.140;8.904;2023-03-13T02:58:53;99866.13;;;5.40;100.00
11856;BME280;5987;53.140;8.904;2023-03-13T03:01:56;99859.81;;;5.47;100.00
11856;BME280;5987;53.140;8.904;2023-03-13T03:05:00;99854.03;;;5.37;100.00
11856;BME280;5987;53.140;8.904;2023-03-13T03:08:04;99848.72;;;5.42;100.00
11856;BME280;5987;53.140;8.904;2023-03-13T03:11:08;99853.22;;;5.37;100.00
11856;BME280;5987;53.140;8.904;2023-03-13T03:14:13;99838.16;;;5.46;100.00
11856;BME280;5987;53.140;8.904;2023-03-13T03:17:17;99834.50;;;5.52;100.00
11856;BME280;5987;53.140;8.904;2023-03-13T03:20:21;99822.59;;;5.45;100.00
11856;BME280;5987;53.140;8.904;2023-03-13T03:23:25;99814.78;;;5.45;100.00
11856;BME280;5987;53.140;8.904;2023-03-13T03:26:29;99812.38;;;5.39;100.00
11856;BME280;5987;53.140;8.904;2023-03-13T03:29:34;99808.06;;;5.38;100.00
11856;BME280;5987;53.140;8.904;2023-03-13T03:32:37;99801.69;;;5.46;100.00
11856;BME280;5987;53.140;8.904;2023-03-13T03:35:41;99793.34;;;5.63;100.00
11856;BME280;5987;53.140;8.904;2023-03-13T03:38:45;99784.09;;;5.55;100.00
11856;BME280;5987;53.140;8.904;2023-03-13T03:41:49;99779.41;;;5.64;100.00
11856;BME280;5987;53.140;8.904;2023-03-13T03:44:54;99769.41;;;5.52;100.00
11856;BME280;5987;53.140;8.904;2023-03-13T03:47:58;99757.28;;;5.51;100.00
11856;BME280;5987;53.140;8.904;2023-03-13T03:51:02;99748.28;;;5.61;100.00
11856;BME280;5987;53.140;8.904;2023-03-13T03:54:06;99742.47;;;5.53;100.00
11856;BME280;5987;53.140;8.904;2023-03-13T03:57:09;99730.09;;;5.60;100.00
11856;BME280;5987;53.140;8.904;2023-03-13T04:00:15;99711.06;;;5.58;100.00
11856;BME280;5987;53.140;8.904;2023-03-13T04:03:20;99702.78;;;5.72;100.00
11856;BME280;5987;53.140;8.904;2023-03-13T04:06:24;99706.94;;;5.77;100.00
11856;BME280;5987;53.140;8.904;2023-03-13T04:09:28;99700.97;;;5.74;100.00
11856;BME280;5987;53.140;8.904;2023-03-13T04:12:33;99690.78;;;5.67;100.00
11856;BME280;5987;53.140;8.904;2023-03-13T04:15:39;99685.78;;;5.61;100.00
11856;BME280;5987;53.140;8.904;2023-03-13T04:18:43;99678.75;;;5.63;100.00
11856;BME280;5987;53.140;8.904;2023-03-13T04:21:47;99669.69;;;5.75;100.00
11856;BME280;5987;53.140;8.904;2023-03-13T04:24:50;99648.56;;;5.83;100.00
11856;BME280;5987;53.140;8.904;2023-03-13T04:27:54;99644.16;;;5.85;100.00
11856;BME280;5987;53.140;8.904;2023-03-13T04:30:59;99642.59;;;5.79;100.00
11856;BME280;5987;53.140;8.904;2023-03-13T04:34:03;99636.09;;;5.91;100.00
11856;BME280;5987;53.140;8.904;2023-03-13T04:37:06;99614.69;;;5.83;100.00
11856;BME280;5987;53.140;8.904;2023-03-13T04:40:11;99603.59;;;6.01;100.00
11856;BME280;5987;53.140;8.904;2023-03-13T04:43:15;99599.81;;;5.87;100.00
11856;BME280;5987;53.140;8.904;2023-03-13T04:46:20;99596.00;;;5.95;100.00
11856;BME280;5987;53.140;8.904;2023-03-13T04:49:24;99580.28;;;5.98;100.00
11856;BME280;5987;53.140;8.904;2023-03-13T04:52:28;99575.91;;;5.99;100.00
11856;BME280;5987;53.140;8.904;2023-03-13T04:55:31;99584.41;;;6.04;100.00
11856;BME280;5987;53.140;8.904;2023-03-13T04:58:35;99577.63;;;6.00;100.00
11856;BME280;5987;53.140;8.904;2023-03-13T05:01:41;99565.19;;;6.07;100.00
11856;BME280;5987;53.140;8.904;2023-03-13T05:04:45;99567.22;;;6.22;100.00
11856;BME280;5987;53.140;8.904;2023-03-13T05:07:49;99557.81;;;6.18;100.00
11856;BME280;5987;53.140;8.904;2023-03-13T05:10:52;99553.38;;;6.20;100.00
11856;BME280;5987;53.140;8.904;2023-03-13T05:13:56;99556.66;;;6.25;100.00
11856;BME280;5987;53.140;8.904;2023-03-13T05:17:01;99548.22;;;6.41;100.00
11856;BME280;5987;53.140;8.904;2023-03-13T05:20:06;99547.69;;;6.32;100.00
11856;BME280;5987;53.140;8.904;2023-03-13T05:23:12;99536.91;;;6.42;100.00
11856;BME280;5987;53.140;8.904;2023-03-13T05:26:16;99529.44;;;6.32;100.00
11856;BME280;5987;53.140;8.904;2023-03-13T05:29:20;99525.16;;;6.52;100.00
11856;BME280;5987;53.140;8.904;2023-03-13T05:32:25;99510.81;;;6.42;100.00
11856;BME280;5987;53.140;8.904;2023-03-13T05:35:29;99514.25;;;6.42;100.00
11856;BME280;5987;53.140;8.904;2023-03-13T05:38:33;99503.59;;;6.48;100.00
11856;BME280;5987;53.140;8.904;2023-03-13T05:41:36;99490.09;;;6.59;100.00
11856;BME280;5987;53.140;8.904;2023-03-13T05:44:40;99497.09;;;6.59;100.00
11856;BME280;5987;53.140;8.904;2023-03-13T05:47:45;99489.78;;;6.67;100.00
11856;BME280;5987;53.140;8.904;2023-03-13T05:50:49;99486.97;;;6.72;100.00
11856;BME280;5987;53.140;8.904;2023-03-13T05:53:52;99477.81;;;6.82;100.00
11856;BME280;5987;53.140;8.904;2023-03-13T05:56:56;99483.78;;;6.85;100.00
11856;BME280;5987;53.140;8.904;2023-03-13T06:00:00;99469.53;;;6.93;100.00
11856;BME280;5987;53.140;8.904;2023-03-13T06:03:05;99463.06;;;7.01;100.00
11856;BME280;5987;53.140;8.904;2023-03-13T06:06:09;99456.50;;;6.93;100.00
11856;BME280;5987;53.140;8.904;2023-03-13T06:09:12;99454.31;;;7.02;100.00
11856;BME280;5987;53.140;8.904;2023-03-13T06:12:16;99439.19;;;7.11;100.00
11856;BME280;5987;53.140;8.904;2023-03-13T06:15:20;99431.13;;;7.15;100.00
11856;BME280;5987;53.140;8.904;2023-03-13T06:18:25;99420.34;;;7.23;100.00
11856;BME280;5987;53.140;8.904;2023-03-13T06:21:29;99421.91;;;7.27;100.00
11856;BME280;5987;53.140;8.904;2023-03-13T06:24:33;99416.88;;;7.22;100.00
11856;BME280;5987;53.140;8.904;2023-03-13T06:27:37;99415.75;;;7.47;100.00
11856;BME280;5987;53.140;8.904;2023-03-13T06:30:41;99405.03;;;7.34;100.00
11856;BME280;5987;53.140;8.904;2023-03-13T06:33:46;99405.22;;;7.49;100.00
11856;BME280;5987;53.140;8.904;2023-03-13T06:36:51;99405.38;;;7.46;100.00
11856;BME280;5987;53.140;8.904;2023-03-13T06:39:55;99398.31;;;7.48;100.00
11856;BME280;5987;53.140;8.904;2023-03-13T06:42:59;99398.16;;;7.51;100.00
11856;BME280;5987;53.140;8.904;2023-03-13T06:46:03;99400.00;;;7.68;100.00
11856;BME280;5987;53.140;8.904;2023-03-13T06:49:09;99389.78;;;7.81;100.00
11856;BME280;5987;53.140;8.904;2023-03-13T06:52:13;99384.91;;;7.73;100.00
11856;BME280;5987;53.140;8.904;2023-03-13T06:55:17;99376.81;;;7.79;100.00
11856;BME280;5987;53.140;8.904;2023-03-13T06:58:20;99382.78;;;7.81;100.00
11856;BME280;5987;53.140;8.904;2023-03-13T07:01:34;99382.75;;;8.00;100.00
11856;BME280;5987;53.140;8.904;2023-03-13T07:04:39;99373.28;;;7.98;100.00
11856;BME280;5987;53.140;8.904;2023-03-13T07:07:44;99368.06;;;7.98;100.00
11856;BME280;5987;53.140;8.904;2023-03-13T07:10:48;99368.34;;;8.09;100.00
11856;BME280;5987;53.140;8.904;2023-03-13T07:13:54;99372.28;;;8.18;100.00
11856;BME280;5987;53.140;8.904;2023-03-13T07:17:16;99373.66;;;8.25;100.00
11856;BME280;5987;53.140;8.904;2023-03-13T07:20:21;99364.41;;;8.35;100.00
11856;BME280;5987;53.140;8.904;2023-03-13T07:23:27;99358.88;;;8.41;100.00
11856;BME280;5987;53.140;8.904;2023-03-13T07:26:31;99352.03;;;8.56;100.00
11856;BME280;5987;53.140;8.904;2023-03-13T07:29:35;99365.69;;;8.62;100.00
11856;BME280;5987;53.140;8.904;2023-03-13T07:32:39;99373.25;;;8.50;100.00
11856;BME280;5987;53.140;8.904;2023-03-13T07:35:49;99359.00;;;8.73;100.00
11856;BME280;5987;53.140;8.904;2023-03-13T07:38:53;99367.16;;;8.67;100.00
11856;BME280;5987;53.140;8.904;2023-03-13T07:41:57;99363.63;;;8.84;100.00
11856;BME280;5987;53.140;8.904;2023-03-13T07:45:00;99363.69;;;9.00;100.00
11856;BME280;5987;53.140;8.904;2023-03-13T07:48:04;99359.69;;;8.93;100.00
11856;BME280;5987;53.140;8.904;2023-03-13T07:51:14;99344.56;;;8.98;100.00
11856;BME280;5987;53.140;8.904;2023-03-13T07:54:18;99353.94;;;9.18;100.00
11856;BME280;5987;53.140;8.904;2023-03-13T07:57:22;99364.84;;;9.26;100.00
11856;BME280;5987;53.140;8.904;2023-03-13T08:00:26;99360.91;;;9.35;100.00
11856;BME280;5987;53.140;8.904;2023-03-13T08:03:29;99368.06;;;9.48;100.00
11856;BME280;5987;53.140;8.904;2023-03-13T08:06:34;99360.69;;;9.54;100.00
11856;BME280;5987;53.140;8.904;2023-03-13T08:09:38;99350.53;;;9.64;100.00
11856;BME280;5987;53.140;8.904;2023-03-13T08:12:42;99342.16;;;9.73;100.00
11856;BME280;5987;53.140;8.904;2023-03-13T08:15:46;99338.81;;;9.86;100.00
11856;BME280;5987;53.140;8.904;2023-03-13T08:18:53;99339.97;;;9.96;100.00
11856;BME280;5987;53.140;8.904;2023-03-13T08:21:59;99342.28;;;9.86;100.00
11856;BME280;5987;53.140;8.904;2023-03-13T08:25:02;99323.56;;;9.92;100.00
11856;BME280;5987;53.140;8.904;2023-03-13T08:28:06;99329.28;;;9.85;100.00
11856;BME280;5987;53.140;8.904;2023-03-13T08:31:13;99313.09;;;9.92;100.00
11856;BME280;5987;53.140;8.904;2023-03-13T08:34:18;99321.88;;;9.91;100.00
11856;BME280;5987;53.140;8.904;2023-03-13T08:37:23;99330.59;;;9.92;100.00
11856;BME280;5987;53.140;8.904;2023-03-13T08:40:27;99324.59;;;9.90;100.00
11856;BME280;5987;53.140;8.904;2023-03-13T08:43:30;99330.78;;;9.89;100.00
11856;BME280;5987;53.140;8.904;2023-03-13T08:46:35;99325.84;;;9.99;100.00
11856;BME280;5987;53.140;8.904;2023-03-13T08:49:39;99333.44;;;10.03;100.00
11856;BME280;5987;53.140;8.904;2023-03-13T08:52:45;99333.44;;;10.03;100.00
11856;BME280;5987;53.140;8.904;2023-03-13T08:55:52;99330.00;;;10.03;100.00
11856;BME280;5987;53.140;8.904;2023-03-13T08:58:58;99318.63;;;10.02;100.00
11856;BME280;5987;53.140;8.904;2023-03-13T09:02:02;99330.00;;;10.17;100.00
11856;BME280;5987;53.140;8.904;2023-03-13T09:05:07;99337.00;;;10.17;100.00
11856;BME280;5987;53.140;8.904;2023-03-13T09:08:12;99317.91;;;10.15;100.00
11856;BME280;5987;53.140;8.904;2023-03-13T09:11:19;99327.31;;;10.33;100.00
11856;BME280;5987;53.140;8.904;2023-03-13T09:14:23;99330.72;;;10.35;100.00
11856;BME280;5987;53.140;8.904;2023-03-13T09:17:27;99326.97;;;10.39;100.00
11856;BME280;5987;53.140;8.904;2023-03-13T09:20:31;99332.97;;;10.56;100.00
11856;BME280;5987;53.140;8.904;2023-03-13T09:23:36;99328.09;;;10.64;100.00
11856;BME280;5987;53.140;8.904;2023-03-13T09:26:40;99326.97;;;10.68;100.00
11856;BME280;5987;53.140;8.904;2023-03-13T09:30:01;99336.44;;;10.71;100.00
11856;BME280;5987;53.140;8.904;2023-03-13T09:33:05;99330.16;;;10.59;100.00
11856;BME280;5987;53.140;8.904;2023-03-13T09:36:09;99335.03;;;10.51;100.00
11856;BME280;5987;53.140;8.904;2023-03-13T09:39:15;99342.44;;;10.44;100.00
11856;BME280;5987;53.140;8.904;2023-03-13T09:42:24;99330.81;;;10.48;100.00
11856;BME280;5987;53.140;8.904;2023-03-13T09:45:38;99343.66;;;10.53;100.00
11856;BME280;5987;53.140;8.904;2023-03-13T09:48:48;99332.22;;;10.54;100.00
11856;BME280;5987;53.140;8.904;2023-03-13T09:52:03;99338.13;;;10.72;100.00
11856;BME280;5987;53.140;8.904;2023-03-13T09:55:18;99339.06;;;10.85;100.00
11856;BME280;5987;53.140;8.904;2023-03-13T09:58:27;99330.97;;;11.03;100.00
11856;BME280;5987;53.140;8.904;2023-03-13T10:01:34;99326.78;;;11.27;100.00
11856;BME280;5987;53.140;8.904;2023-03-13T10:04:45;99316.78;;;11.60;100.00
11856;BME280;5987;53.140;8.904;2023-03-13T10:07:59;99302.97;;;11.71;100.00
11856;BME280;5987;53.140;8.904;2023-03-13T10:11:10;99308.44;;;11.80;100.00
11856;BME280;5987;53.140;8.904;2023-03-13T10:14:28;99307.91;;;12.15;100.00
11856;BME280;5987;53.140;8.904;2023-03-13T10:17:35;99302.72;;;12.40;100.00
11856;BME280;5987;53.140;8.904;2023-03-13T10:20:42;99287.16;;;12.49;100.00
11856;BME280;5987;53.140;8.904;2023-03-13T10:23:51;99289.13;;;12.46;100.00
11856;BME280;5987;53.140;8.904;2023-03-13T10:26:58;99289.69;;;12.25;100.00
11856;BME280;5987;53.140;8.904;2023-03-13T10:30:02;99300.50;;;12.21;100.00
11856;BME280;5987;53.140;8.904;2023-03-13T10:33:22;99283.56;;;12.25;100.00
11856;BME280;5987;53.140;8.904;2023-03-13T10:36:39;99286.63;;;12.31;100.00
11856;BME280;5987;53.140;8.904;2023-03-13T10:39:44;99294.84;;;12.27;100.00
11856;BME280;5987;53.140;8.904;2023-03-13T10:42:52;99304.84;;;12.22;100.00
11856;BME280;5987;53.140;8.904;2023-03-13T10:45:57;99289.03;;;12.22;100.00
11856;BME280;5987;53.140;8.904;2023-03-13T10:49:03;99282.31;;;12.17;100.00
11856;BME280;5987;53.140;8.904;2023-03-13T10:52:31;99301.38;;;12.08;100.00
11856;BME280;5987;53.140;8.904;2023-03-13T10:55:41;99297.88;;;12.21;100.00
11856;BME280;5987;53.140;8.904;2023-03-13T10:58:50;99300.09;;;12.40;100.00
11856;BME280;5987;53.140;8.904;2023-03-13T11:02:00;99290.00;;;12.46;100.00
11856;BME280;5987;53.140;8.904;2023-03-13T11:05:36;99304.19;;;12.57;100.00
11856;BME280;5987;53.140;8.904;2023-03-13T11:08:41;99293.53;;;12.58;100.00
11856;BME280;5987;53.140;8.904;2023-03-13T11:11:48;99284.59;;;12.61;100.00
11856;BME280;5987;53.140;8.904;2023-03-13T11:14:57;99284.81;;;12.58;100.00
11856;BME280;5987;53.140;8.904;2023-03-13T11:18:09;99269.13;;;12.56;100.00
11856;BME280;5987;53.140;8.904;2023-03-13T11:21:23;99266.69;;;12.66;100.00
11856;BME280;5987;53.140;8.904;2023-03-13T11:24:42;99261.19;;;12.69;100.00
11856;BME280;5987;53.140;8.904;2023-03-13T11:28:00;99264.75;;;12.81;100.00
11856;BME280;5987;53.140;8.904;2023-03-13T11:31:13;99268.66;;;13.12;100.00
11856;BME280;5987;53.140;8.904;2023-03-13T11:34:23;99256.59;;;13.21;100.00
11856;BME280;5987;53.140;8.904;2023-03-13T11:37:34;99266.81;;;13.26;100.00
11856;BME280;5987;53.140;8.904;2023-03-13T11:40:54;99248.63;;;13.58;100.00
11856;BME280;5987;53.140;8.904;2023-03-13T11:44:18;99243.50;;;13.68;100.00
11856;BME280;5987;53.140;8.904;2023-03-13T11:47:39;99236.28;;;13.59;100.00
11856;BME280;5987;53.140;8.904;2023-03-13T11:50:53;99237.97;;;13.60;100.00
11856;BME280;5987;53.140;8.904;2023-03-13T11:54:28;99237.84;;;13.61;100.00
11856;BME280;5987;53.140;8.904;2023-03-13T11:57:43;99250.91;;;13.63;100.00
11856;BME280;5987;53.140;8.904;2023-03-13T12:00:58;99245.53;;;13.64;100.00
11856;BME280;5987;53.140;8.904;2023-03-13T12:04:13;99228.81;;;13.52;100.00
11856;BME280;5987;53.140;8.904;2023-03-13T12:07:25;99228.81;;;13.52;100.00
11856;BME280;5987;53.140;8.904;2023-03-13T12:10:36;99205.38;;;13.72;100.00
11856;BME280;5987;53.140;8.904;2023-03-13T12:13:48;99200.25;;;13.93;100.00
11856;BME280;5987;53.140;8.904;2023-03-13T12:16:58;99191.53;;;14.04;100.00
11856;BME280;5987;53.140;8.904;2023-03-13T12:20:14;99185.03;;;13.97;100.00
11856;BME280;5987;53.140;8.904;2023-03-13T12:23:35;99192.47;;;14.03;100.00
11856;BME280;5987;53.140;8.904;2023-03-13T12:26:47;99196.06;;;14.02;100.00
11856;BME280;5987;53.140;8.904;2023-03-13T12:29:58;99196.91;;;14.14;100.00
11856;BME280;5987;53.140;8.904;2023-03-13T12:33:15;99180.97;;;14.15;100.00
11856;BME280;5987;53.140;8.904;2023-03-13T12:36:32;99175.81;;;14.14;100.00
11856;BME280;5987;53.140;8.904;2023-03-13T12:39:45;99175.19;;;14.10;100.00
11856;BME280;5987;53.140;8.904;2023-03-13T12:42:57;99178.31;;;14.15;100.00
11856;BME280;5987;53.140;8.904;2023-03-13T12:46:32;99178.31;;;14.27;100.00
11856;BME280;5987;53.140;8.904;2023-03-13T12:50:15;99164.63;;;14.33;100.00
11856;BME280;5987;53.140;8.904;2023-03-13T12:54:01;99158.38;;;14.34;100.00
11856;BME280;5987;53.140;8.904;2023-03-13T12:57:45;99154.78;;;14.35;100.00
11856;BME280;5987;53.140;8.904;2023-03-13T13:01:00;99146.13;;;14.44;100.00
11856;BME280;5987;53.140;8.904;2023-03-13T13:04:10;99130.75;;;14.49;100.00
11856;BME280;5987;53.140;8.904;2023-03-13T13:07:23;99133.88;;;14.54;100.00
11856;BME280;5987;53.140;8.904;2023-03-13T13:10:29;99118.97;;;14.65;100.00
11856;BME280;5987;53.140;8.904;2023-03-13T13:13:39;99111.75;;;14.55;100.00
11856;BME280;5987;53.140;8.904;2023-03-13T13:16:45;99105.72;;;14.76;100.00
11856;BME280;5987;53.140;8.904;2023-03-13T13:19:49;99104.03;;;14.75;100.00
11856;BME280;5987;53.140;8.904;2023-03-13T13:22:53;99092.94;;;14.92;100.00
11856;BME280;5987;53.140;8.904;2023-03-13T13:26:48;99104.03;;;14.75;100.00
11856;BME280;5987;53.140;8.904;2023-03-13T13:29:55;99104.34;;;14.93;100.00
11856;BME280;5987;53.140;8.904;2023-03-13T13:33:38;99090.81;;;14.75;100.00
11856;BME280;5987;53.140;8.904;2023-03-13T13:36:43;99091.38;;;14.90;100.00
11856;BME280;5987;53.140;8.904;2023-03-13T13:39:48;99095.84;;;14.89;100.00
11856;BME280;5987;53.140;8.904;2023-03-13T13:42:56;99085.81;;;14.72;100.00
11856;BME280;5987;53.140;8.904;2023-03-13T13:46:05;99068.03;;;14.74;100.00
11856;BME280;5987;53.140;8.904;2023-03-13T13:49:20;99072.03;;;14.68;100.00
11856;BME280;5987;53.140;8.904;2023-03-13T13:52:36;99066.31;;;14.84;100.00
11856;BME280;5987;53.140;8.904;2023-03-13T13:55:43;99053.22;;;15.04;100.00
11856;BME280;5987;53.140;8.904;2023-03-13T13:58:49;99064.19;;;14.99;100.00
11856;BME280;5987;53.140;8.904;2023-03-13T14:02:21;99063.94;;;15.02;100.00
11856;BME280;5987;53.140;8.904;2023-03-13T14:05:29;99053.66;;;15.09;100.00
11856;BME280;5987;53.140;8.904;2023-03-13T14:08:37;99047.66;;;15.28;100.00
11856;BME280;5987;53.140;8.904;2023-03-13T14:11:41;99065.00;;;15.42;100.00
11856;BME280;5987;53.140;8.904;2023-03-13T14:14:46;99033.84;;;15.24;100.00
11856;BME280;5987;53.140;8.904;2023-03-13T14:17:52;99049.47;;;15.27;100.00
11856;BME280;5987;53.140;8.904;2023-03-13T14:20:59;99035.94;;;15.52;100.00
11856;BME280;5987;53.140;8.904;2023-03-13T14:24:12;99036.09;;;15.81;100.00
11856;BME280;5987;53.140;8.904;2023-03-13T14:27:18;99028.56;;;15.55;100.00
11856;BME280;5987;53.140;8.904;2023-03-13T14:30:24;99024.19;;;15.35;100.00
11856;BME280;5987;53.140;8.904;2023-03-13T14:33:28;99017.28;;;15.22;100.00
11856;BME280;5987;53.140;8.904;2023-03-13T14:36:46;99023.19;;;15.05;100.00
11856;BME280;5987;53.140;8.904;2023-03-13T14:39:50;99004.84;;;15.13;100.00
11856;BME280;5987;53.140;8.904;2023-03-13T14:42:56;99002.03;;;15.05;100.00
11856;BME280;5987;53.140;8.904;2023-03-13T14:46:14;99010.22;;;15.02;100.00
11856;BME280;5987;53.140;8.904;2023-03-13T14:49:22;99010.72;;;15.17;100.00
11856;BME280;5987;53.140;8.904;2023-03-13T14:52:29;99007.38;;;15.15;100.00
11856;BME280;5987;53.140;8.904;2023-03-13T14:55:35;99006.31;;;15.27;100.00
11856;BME280;5987;53.140;8.904;2023-03-13T14:58:41;99008.34;;;15.44;100.00
11856;BME280;5987;53.140;8.904;2023-03-13T15:02:13;98994.63;;;15.30;100.00
11856;BME280;5987;53.140;8.904;2023-03-13T15:05:32;98992.22;;;15.48;100.00
11856;BME280;5987;53.140;8.904;2023-03-13T15:08:38;99003.88;;;15.45;100.00
11856;BME280;5987;53.140;8.904;2023-03-13T15:11:52;99005.56;;;15.46;100.00
11856;BME280;5987;53.140;8.904;2023-03-13T15:14:57;98999.75;;;15.52;100.00
11856;BME280;5987;53.140;8.904;2023-03-13T15:18:17;98994.72;;;15.49;100.00
11856;BME280;5987;53.140;8.904;2023-03-13T15:21:27;98983.88;;;15.52;100.00
11856;BME280;5987;53.140;8.904;2023-03-13T15:24:31;98966.00;;;15.35;100.00
11856;BME280;5987;53.140;8.904;2023-03-13T15:27:35;98977.38;;;15.25;100.00
11856;BME280;5987;53.140;8.904;2023-03-13T15:30:39;98974.81;;;15.14;100.00
11856;BME280;5987;53.140;8.904;2023-03-13T15:33:45;98967.75;;;15.24;100.00
11856;BME280;5987;53.140;8.904;2023-03-13T15:36:48;98975.53;;;15.16;100.00
11856;BME280;5987;53.140;8.904;2023-03-13T15:39:53;98968.28;;;15.18;100.00
11856;BME280;5987;53.140;8.904;2023-03-13T15:42:57;98973.06;;;15.03;100.00
11856;BME280;5987;53.140;8.904;2023-03-13T15:46:01;98969.56;;;14.93;100.00
11856;BME280;5987;53.140;8.904;2023-03-13T15:49:10;98953.44;;;14.96;100.00
11856;BME280;5987;53.140;8.904;2023-03-13T15:52:18;98943.72;;;14.97;100.00
11856;BME280;5987;53.140;8.904;2023-03-13T15:55:25;98930.22;;;15.00;100.00
11856;BME280;5987;53.140;8.904;2023-03-13T15:58:30;98933.22;;;14.85;100.00
11856;BME280;5987;53.140;8.904;2023-03-13T16:01:33;98925.38;;;14.74;100.00
11856;BME280;5987;53.140;8.904;2023-03-13T16:04:38;98913.25;;;14.71;100.00
11856;BME280;5987;53.140;8.904;2023-03-13T16:07:42;98918.69;;;14.70;100.00
11856;BME280;5987;53.140;8.904;2023-03-13T16:10:47;98919.19;;;14.64;100.00
11856;BME280;5987;53.140;8.904;2023-03-13T16:13:50;98921.97;;;14.62;100.00
11856;BME280;5987;53.140;8.904;2023-03-13T16:16:54;98914.63;;;14.66;100.00
11856;BME280;5987;53.140;8.904;2023-03-13T16:19:59;98926.50;;;14.60;100.00
11856;BME280;5987;53.140;8.904;2023-03-13T16:23:03;98922.88;;;14.61;100.00
11856;BME280;5987;53.140;8.904;2023-03-13T16:26:14;98916.91;;;14.59;100.00
11856;BME280;5987;53.140;8.904;2023-03-13T16:29:18;98922.72;;;14.53;100.00
11856;BME280;5987;53.140;8.904;2023-03-13T16:32:22;98916.91;;;14.38;100.00
11856;BME280;5987;53.140;8.904;2023-03-13T16:35:28;98913.13;;;14.31;100.00
11856;BME280;5987;53.140;8.904;2023-03-13T16:38:32;98916.78;;;14.39;100.00
11856;BME280;5987;53.140;8.904;2023-03-13T16:41:36;98909.31;;;14.45;100.00